Pagina principală
METAR-TAF:

METAR-TAF

Aeroporturi :

Yap, Micronezia

Latitudine: 09-29N, longitudine: 138-05E, elevație: 28 m

Observații meteo curente

Raportul a fost făcut în urmă cu 26 de minute, la 08:53 UTC
Vânt 9 kt de la Est/Nord-est
Temperatură 27°C
Umiditate 84%
Presiune 1009 hPa
Vizibilitate: 19.3 km
Nori puțini la o înălțime de 1600 picior
Nori împrăștiați la o înălțime de 13000 picior
Nori fragmentați la o înălțime de 30000 picior

METAR: PTYA 290853Z 07009KT 12SM FEW016 SCT130 BKN300 27/24 A2979 RMK SLP088 8/171 T02730242 53005

Ora: 19:19 (09:19 UTC)

Prognoză

Raportul a fost făcut în urmă cu 3 ore și 54 de minute, la 05:25 UTC
Prognoză valabilă de la 29 ora 06 UTC la 30 ora 06 UTC
Vânt 11 kt de la Est
Vizibilitate: 10 km
Nori puțini la o înălțime de 1600 picior

TAF: PTYA 290525Z 2906/3006 08011KT P6SM FEW016

Observații și prognoze meteo pentru peste 4.000 de aeroporturi (rapoarte METAR și TAF).

Stațiile disponibile sunt reprezentate pe hartă prin puncte galbene și roșii.

Țineți indicatorul mouse-ului pe punctul dorit pentru a vedea denumirea stației.

Apoi, faceți clic pentru a vedea observațiile și prognozele meteorologice.

Pentru a schimba harta: Pentru mărire, faceți clic pe butoanele verzi cu cruce neagră; pentru micșorare, pe butonul verde cu o liniuță; pentru hărți învecinate, pe săgețile verzi.


METAR-TAF: